createdAt,value
2023-10-14T00:01:53.025Z,14.30
2023-10-14T00:04:23.300Z,15.05
2023-10-14T00:06:50.353Z,12.90
2023-10-14T00:09:17.711Z,13.15
2023-10-14T00:11:47.662Z,13.73
2023-10-14T00:14:18.680Z,13.98
2023-10-14T00:19:24.019Z,13.43
2023-10-14T00:21:52.000Z,14.95
2023-10-14T00:24:29.525Z,14.57
2023-10-14T00:26:58.860Z,15.23
2023-10-14T00:29:30.592Z,15.13
2023-10-14T00:32:00.489Z,14.13
2023-10-14T00:34:27.766Z,15.18
2023-10-14T00:36:54.965Z,15.98
2023-10-14T00:39:27.144Z,16.20
2023-10-14T00:41:54.560Z,15.77
2023-10-14T00:44:25.612Z,15.10
2023-10-14T00:46:54.287Z,15.80
2023-10-14T00:49:24.216Z,15.23
2023-10-14T00:51:58.754Z,14.87
2023-10-14T00:54:35.557Z,14.93
2023-10-14T00:57:21.603Z,14.25
2023-10-14T01:00:01.254Z,14.05
2023-10-14T01:02:31.627Z,14.23
2023-10-14T01:05:08.245Z,13.10
2023-10-14T01:07:35.435Z,13.82
2023-10-14T01:10:06.355Z,14.35
2023-10-14T01:12:51.016Z,14.15
2023-10-14T01:15:22.782Z,14.10
2023-10-14T01:17:51.091Z,14.75
2023-10-14T01:20:18.125Z,14.82
2023-10-14T01:22:51.647Z,14.23
2023-10-14T01:25:20.752Z,14.95
2023-10-14T01:27:47.820Z,15.02
2023-10-14T01:30:26.904Z,15.27
2023-10-14T01:32:58.991Z,15.70
2023-10-14T01:35:28.385Z,13.85
2023-10-14T01:37:57.322Z,14.68
2023-10-14T01:40:28.582Z,14.40
2023-10-14T01:43:07.142Z,14.00
2023-10-14T01:45:55.417Z,14.65
2023-10-14T01:48:23.318Z,13.85
2023-10-14T01:50:56.224Z,14.32
2023-10-14T01:53:25.185Z,14.30
2023-10-14T01:55:54.341Z,13.38
2023-10-14T01:58:23.699Z,13.70
2023-10-14T02:00:59.728Z,13.63
2023-10-14T02:03:33.756Z,13.20
2023-10-14T02:06:04.030Z,13.35
2023-10-14T02:08:31.462Z,13.20
2023-10-14T02:10:59.426Z,14.13
2023-10-14T02:13:26.468Z,12.63
2023-10-14T02:15:54.587Z,14.65
2023-10-14T02:18:23.764Z,13.05
2023-10-14T02:20:57.998Z,13.07
2023-10-14T02:23:31.174Z,12.63
2023-10-14T02:25:59.143Z,12.93
2023-10-14T02:28:41.352Z,13.90
2023-10-14T02:31:18.634Z,13.45
2023-10-14T02:33:49.115Z,12.85
2023-10-14T02:36:17.125Z,12.90
2023-10-14T02:38:55.685Z,13.15
2023-10-14T02:41:23.380Z,14.02
2023-10-14T02:43:50.776Z,12.82
2023-10-14T02:46:22.779Z,13.40
2023-10-14T02:48:56.099Z,12.52
2023-10-14T02:51:33.005Z,12.52
2023-10-14T02:54:05.107Z,11.63
2023-10-14T02:56:55.667Z,12.35
2023-10-14T02:59:31.230Z,12.57
2023-10-14T03:02:16.731Z,11.60
2023-10-14T03:04:55.281Z,11.65
2023-10-14T03:07:46.731Z,11.95
2023-10-14T03:10:19.609Z,11.55
2023-10-14T03:12:50.622Z,10.93
2023-10-14T03:17:57.856Z,11.90
2023-10-14T03:20:29.126Z,11.85
2023-10-14T03:23:19.204Z,11.20
2023-10-14T03:25:51.419Z,11.37
2023-10-14T03:28:22.878Z,12.55
2023-10-14T03:30:59.612Z,12.50
2023-10-14T03:33:34.087Z,11.80
2023-10-14T03:36:05.275Z,10.93
2023-10-14T03:38:41.724Z,11.32
2023-10-14T03:41:20.126Z,11.25
2023-10-14T03:44:00.628Z,11.05
2023-10-14T03:46:48.928Z,9.75
2023-10-14T03:49:22.575Z,10.65
2023-10-14T03:51:58.105Z,9.75
2023-10-14T03:54:27.745Z,9.70
2023-10-14T03:56:58.379Z,10.80
2023-10-14T03:59:27.157Z,10.02
2023-10-14T04:02:16.441Z,10.32
2023-10-14T04:04:44.446Z,10.75
2023-10-14T04:07:11.593Z,9.73
2023-10-14T04:09:40.414Z,9.85
2023-10-14T04:12:11.220Z,9.10
2023-10-14T04:14:38.965Z,9.75
2023-10-14T04:17:11.658Z,10.30
2023-10-14T04:19:46.266Z,9.90
2023-10-14T04:22:33.036Z,9.82
2023-10-14T04:25:19.605Z,9.57
2023-10-14T04:27:51.879Z,9.27
2023-10-14T04:30:27.200Z,10.00
2023-10-14T04:32:57.015Z,8.85
2023-10-14T04:35:25.299Z,9.02
2023-10-14T04:37:56.605Z,8.43
2023-10-14T04:40:38.339Z,8.30
2023-10-14T04:43:19.237Z,9.00
2023-10-14T04:48:17.393Z,9.07
2023-10-14T04:50:48.474Z,8.88
2023-10-14T04:53:15.534Z,9.18
2023-10-14T04:55:45.552Z,9.27
2023-10-14T04:58:12.858Z,8.68
2023-10-14T05:00:44.839Z,8.60
2023-10-14T05:03:16.387Z,8.43
2023-10-14T05:05:45.097Z,8.23
2023-10-14T05:08:32.336Z,8.02
2023-10-14T05:11:02.029Z,8.38
2023-10-14T05:13:35.090Z,7.72
2023-10-14T05:16:16.893Z,8.13
2023-10-14T05:18:59.598Z,7.30
2023-10-14T05:21:36.794Z,7.22
2023-10-14T05:24:10.695Z,7.20
2023-10-14T05:26:48.576Z,6.60
2023-10-14T05:29:20.065Z,7.20
2023-10-14T05:31:50.586Z,6.55
2023-10-14T05:34:37.068Z,6.68
2023-10-14T05:37:04.469Z,6.15
2023-10-14T05:39:38.077Z,6.80
2023-10-14T05:42:14.706Z,6.43
2023-10-14T05:44:48.771Z,6.43
2023-10-14T05:47:20.558Z,6.50
2023-10-14T05:49:48.401Z,6.75
2023-10-14T05:52:15.554Z,6.70
2023-10-14T05:57:31.464Z,6.70
2023-10-14T05:59:59.404Z,6.05
2023-10-14T06:02:26.926Z,5.72
2023-10-14T06:04:53.994Z,5.97
2023-10-14T06:07:21.110Z,5.88
2023-10-14T06:09:48.690Z,6.03
2023-10-14T06:12:15.733Z,6.13
2023-10-14T06:14:43.977Z,5.78
2023-10-14T06:17:13.259Z,5.72
2023-10-14T06:19:40.424Z,5.90
2023-10-14T06:22:10.698Z,5.57
2023-10-14T06:24:37.956Z,5.57
2023-10-14T06:27:11.093Z,6.15
2023-10-14T06:29:38.805Z,5.90
2023-10-14T06:32:17.166Z,5.93
2023-10-14T06:34:48.639Z,4.80
2023-10-14T06:37:16.043Z,5.65
2023-10-14T06:39:43.488Z,5.63
2023-10-14T06:42:13.606Z,5.68
2023-10-14T06:44:47.203Z,5.22
2023-10-14T06:47:14.700Z,5.07
2023-10-14T06:49:45.731Z,5.57
2023-10-14T06:54:42.826Z,4.90
2023-10-14T06:57:10.596Z,5.93
2023-10-14T06:59:38.880Z,5.55
2023-10-14T07:02:07.147Z,5.30
2023-10-14T07:04:41.458Z,5.10
2023-10-14T07:07:11.976Z,5.05
2023-10-14T07:09:40.380Z,5.75
2023-10-14T07:12:16.969Z,5.05
2023-10-14T07:14:47.133Z,5.45
2023-10-14T07:17:23.736Z,5.10
2023-10-14T07:19:51.417Z,5.00
2023-10-14T07:22:24.482Z,5.70
2023-10-14T07:27:37.072Z,5.10
2023-10-14T07:30:15.099Z,5.05
2023-10-14T07:32:46.500Z,5.18
2023-10-14T07:35:18.126Z,5.05
2023-10-14T07:37:46.928Z,6.53
2023-10-14T07:40:34.853Z,4.97
2023-10-14T07:43:06.902Z,4.10
2023-10-14T07:45:45.095Z,4.75
2023-10-14T07:48:13.937Z,5.03
2023-10-14T07:50:43.525Z,4.70
2023-10-14T07:53:14.666Z,5.57
2023-10-14T07:55:49.081Z,5.47
2023-10-14T07:58:24.756Z,5.40
2023-10-14T08:01:06.236Z,4.88
2023-10-14T08:03:57.331Z,4.85
2023-10-14T08:06:26.214Z,5.03
2023-10-14T08:08:53.219Z,5.35
2023-10-14T08:11:23.389Z,5.70
2023-10-14T08:13:50.755Z,5.45
2023-10-14T08:16:17.892Z,5.00
2023-10-14T08:18:46.209Z,5.38
2023-10-14T08:21:13.454Z,5.18
2023-10-14T08:23:40.559Z,5.47
2023-10-14T08:26:14.932Z,5.45
2023-10-14T08:28:43.801Z,6.43
2023-10-14T08:31:13.204Z,5.63
2023-10-14T08:33:41.330Z,6.25
2023-10-14T08:36:09.859Z,5.18
2023-10-14T08:38:36.989Z,6.05
2023-10-14T08:41:04.779Z,6.00
2023-10-14T08:43:32.613Z,5.82
2023-10-14T08:46:01.683Z,5.80
2023-10-14T08:49:10.724Z,6.28
2023-10-14T08:51:54.326Z,6.30
2023-10-14T08:54:25.777Z,6.30
2023-10-14T08:59:20.061Z,6.47
2023-10-14T09:02:06.637Z,6.55
2023-10-14T09:04:40.717Z,6.05
2023-10-14T09:07:14.553Z,7.28
2023-10-14T09:09:42.765Z,6.35
2023-10-14T09:12:12.628Z,6.63
2023-10-14T09:14:40.807Z,6.32
2023-10-14T09:17:12.017Z,6.03
2023-10-14T09:19:47.933Z,6.43
2023-10-14T09:22:41.183Z,6.38
2023-10-14T09:25:08.450Z,6.68
2023-10-14T09:27:37.384Z,6.32
2023-10-14T09:30:07.509Z,7.10
2023-10-14T09:32:39.345Z,6.85
2023-10-14T09:35:06.502Z,6.70
2023-10-14T09:37:33.557Z,6.00
2023-10-14T09:40:09.989Z,6.47
2023-10-14T09:42:37.717Z,5.70
2023-10-14T09:45:13.181Z,6.53
2023-10-14T09:47:47.508Z,6.38
2023-10-14T09:50:16.637Z,5.85
2023-10-14T09:52:44.089Z,6.13
2023-10-14T09:55:15.121Z,6.07
2023-10-14T09:57:48.880Z,6.28
2023-10-14T10:00:19.396Z,5.78
2023-10-14T10:02:50.903Z,5.55
2023-10-14T10:05:24.746Z,5.78
2023-10-14T10:08:19.237Z,5.40
2023-10-14T10:10:48.717Z,5.38
2023-10-14T10:13:18.411Z,4.70
2023-10-14T10:15:47.616Z,4.40
2023-10-14T10:18:17.061Z,4.72
2023-10-14T10:21:03.352Z,4.93
2023-10-14T10:23:32.030Z,4.75
2023-10-14T10:26:00.884Z,4.60
2023-10-14T10:28:28.868Z,4.95
2023-10-14T10:31:13.697Z,4.88
2023-10-14T10:33:58.310Z,5.32
2023-10-14T10:36:35.954Z,4.70
2023-10-14T10:39:20.824Z,4.85
2023-10-14T10:41:52.723Z,5.38
2023-10-14T10:44:20.603Z,4.50
2023-10-14T10:46:56.840Z,5.50
2023-10-14T10:49:50.454Z,5.32
2023-10-14T10:52:18.283Z,5.50
2023-10-14T10:54:47.346Z,5.65
2023-10-14T10:57:14.727Z,5.68
2023-10-14T10:59:42.178Z,5.18
2023-10-14T11:02:15.254Z,5.40
2023-10-14T11:04:43.937Z,4.97
2023-10-14T11:07:15.555Z,5.43
2023-10-14T11:09:42.882Z,5.55
2023-10-14T11:12:11.513Z,4.03
2023-10-14T11:14:41.460Z,2.35
2023-10-14T11:17:09.061Z,1.50
2023-10-14T11:19:36.648Z,1.50
2023-10-14T11:22:05.715Z,1.73
2023-10-14T11:24:33.283Z,0.80
2023-10-14T11:27:09.463Z,1.00
2023-10-14T11:29:36.856Z,1.10
2023-10-14T11:32:04.511Z,0.77
2023-10-14T11:34:38.061Z,0.80
2023-10-14T11:37:08.391Z,0.88
2023-10-14T11:39:37.788Z,1.25
2023-10-14T11:42:05.070Z,1.20
2023-10-14T11:44:32.205Z,1.80
2023-10-14T11:46:59.562Z,1.30
2023-10-14T11:49:27.277Z,1.52
2023-10-14T11:51:54.825Z,6.47
2023-10-14T11:54:25.577Z,6.70
2023-10-14T11:59:19.911Z,3.08
2023-10-14T12:01:47.121Z,1.00
2023-10-14T12:04:16.776Z,0.98
2023-10-14T12:06:44.517Z,1.50
2023-10-14T12:09:12.229Z,3.28
2023-10-14T12:11:45.569Z,3.00
2023-10-14T12:14:13.566Z,4.18
2023-10-14T12:16:42.065Z,7.65
2023-10-14T12:19:13.633Z,6.20
2023-10-14T12:21:43.145Z,3.22
2023-10-14T12:24:11.452Z,1.95
2023-10-14T12:26:48.165Z,1.45
2023-10-14T12:29:15.542Z,3.13
2023-10-14T12:31:47.118Z,2.63
2023-10-14T12:34:15.979Z,4.35
2023-10-14T12:36:46.265Z,3.30
2023-10-14T12:39:27.683Z,2.83
2023-10-14T12:42:03.905Z,3.35
2023-10-14T12:44:34.482Z,3.42
2023-10-14T12:47:12.587Z,1.70
2023-10-14T12:49:40.424Z,2.78
2023-10-14T12:52:14.697Z,3.53
2023-10-14T12:54:42.220Z,3.42
2023-10-14T12:57:09.686Z,2.22
2023-10-14T12:59:41.576Z,2.70
2023-10-14T13:02:12.921Z,3.50
2023-10-14T13:04:43.271Z,1.27
2023-10-14T13:07:10.646Z,1.83
2023-10-14T13:09:39.923Z,1.40
2023-10-14T13:12:17.727Z,5.60
2023-10-14T13:14:46.364Z,5.40
2023-10-14T13:17:13.664Z,1.88
2023-10-14T13:19:42.411Z,3.22
2023-10-14T13:22:13.847Z,1.90
2023-10-14T13:24:41.626Z,1.00
2023-10-14T13:27:08.903Z,1.00
2023-10-14T13:29:37.621Z,1.40
2023-10-14T13:32:05.675Z,17.92
2023-10-14T13:34:34.197Z,1.45
2023-10-14T13:37:02.059Z,1.52
2023-10-14T13:39:36.933Z,6.97
2023-10-14T13:42:07.377Z,22.33
2023-10-14T13:44:35.363Z,32.67
2023-10-14T13:47:06.773Z,4.55
2023-10-14T13:49:34.889Z,2.42
2023-10-14T13:52:04.362Z,30.30
2023-10-14T13:54:32.769Z,57.38
2023-10-14T13:57:00.060Z,79.13
2023-10-14T13:59:27.233Z,20.70
2023-10-14T14:01:54.544Z,11.82
2023-10-14T14:04:22.274Z,14.73
2023-10-14T14:06:51.213Z,6.03
2023-10-14T14:09:24.235Z,3.67
2023-10-14T14:15:15.699Z,2.45
2023-10-14T14:17:42.862Z,8.00
2023-10-14T14:20:12.137Z,3.20
2023-10-14T14:22:39.914Z,2.05
2023-10-14T14:25:07.311Z,3.20
2023-10-14T14:27:36.742Z,1.98
2023-10-14T14:30:08.596Z,2.38
2023-10-14T14:32:40.052Z,3.63
2023-10-14T14:35:10.438Z,2.97
2023-10-14T14:37:42.029Z,2.72
2023-10-14T14:40:18.095Z,3.17
2023-10-14T14:42:48.570Z,1.92
2023-10-14T14:45:17.972Z,2.63
2023-10-14T14:47:44.958Z,2.80
2023-10-14T14:50:16.916Z,3.08
2023-10-14T14:52:44.698Z,1.30
2023-10-14T14:55:15.695Z,2.40
2023-10-14T14:57:53.338Z,3.60
2023-10-14T15:00:28.371Z,6.05
2023-10-14T15:03:11.740Z,4.10
2023-10-14T15:05:43.504Z,3.58
2023-10-14T15:08:15.047Z,2.17
2023-10-14T15:10:46.851Z,1.90
2023-10-14T15:13:16.404Z,2.22
2023-10-14T15:15:44.470Z,1.35
2023-10-14T15:18:12.416Z,1.35
2023-10-14T15:20:39.846Z,1.88
2023-10-14T15:23:11.387Z,1.80
2023-10-14T15:25:38.612Z,1.60
2023-10-14T15:28:10.358Z,1.85
2023-10-14T15:30:39.437Z,1.50
2023-10-14T15:33:11.356Z,1.52
2023-10-14T15:35:38.885Z,1.40
2023-10-14T15:38:09.668Z,1.73
2023-10-14T15:40:37.741Z,1.75
2023-10-14T15:43:06.953Z,1.70
2023-10-14T15:45:36.922Z,2.55
2023-10-14T15:48:13.597Z,3.87
2023-10-14T15:50:45.580Z,4.50
2023-10-14T15:53:14.045Z,3.92
2023-10-14T15:55:43.716Z,5.03
2023-10-14T15:58:11.850Z,4.38
2023-10-14T16:00:48.563Z,3.78
2023-10-14T16:03:21.346Z,4.10
2023-10-14T16:05:48.535Z,2.38
2023-10-14T16:08:15.585Z,3.40
2023-10-14T16:10:46.262Z,2.80
2023-10-14T16:13:16.793Z,3.20
2023-10-14T16:15:45.084Z,4.55
2023-10-14T16:18:13.604Z,2.58
2023-10-14T16:20:40.986Z,3.58
2023-10-14T16:23:08.452Z,3.60
2023-10-14T16:25:36.294Z,2.78
2023-10-14T16:28:03.575Z,2.70
2023-10-14T16:30:32.398Z,2.38
2023-10-14T16:33:00.503Z,3.20
2023-10-14T16:35:31.986Z,3.45
2023-10-14T16:38:01.302Z,2.50
2023-10-14T16:40:29.341Z,2.97
2023-10-14T16:43:01.591Z,4.05
2023-10-14T16:45:29.115Z,1.73
2023-10-14T16:47:58.048Z,2.95
2023-10-14T16:50:29.014Z,1.50
2023-10-14T16:55:26.367Z,2.28
2023-10-14T16:57:56.614Z,3.10
2023-10-14T17:00:31.736Z,1.93
2023-10-14T17:03:00.370Z,2.10
2023-10-14T17:05:29.123Z,2.20
2023-10-14T17:07:58.446Z,1.95
2023-10-14T17:10:28.161Z,1.95
2023-10-14T17:12:57.217Z,2.72
2023-10-14T17:15:25.700Z,2.75
2023-10-14T17:17:54.663Z,1.95
2023-10-14T17:20:23.369Z,2.10
2023-10-14T17:22:56.481Z,2.25
2023-10-14T17:25:28.263Z,1.95
2023-10-14T17:27:57.097Z,2.20
2023-10-14T17:30:30.658Z,2.25
2023-10-14T17:33:03.146Z,3.05
2023-10-14T17:35:31.214Z,2.30
2023-10-14T17:37:59.741Z,2.08
2023-10-14T17:40:29.556Z,1.40
2023-10-14T17:43:05.896Z,1.58
2023-10-14T17:45:34.903Z,1.85
2023-10-14T17:48:06.211Z,2.10
2023-10-14T17:50:36.095Z,1.85
2023-10-14T17:53:14.294Z,2.20
2023-10-14T17:55:46.365Z,2.75
2023-10-14T17:58:14.714Z,1.50
2023-10-14T18:00:43.135Z,1.83
2023-10-14T18:04:23.189Z,1.30
2023-10-14T18:06:50.709Z,1.67
2023-10-14T18:09:18.268Z,1.63
2023-10-14T18:11:51.550Z,2.05
2023-10-14T18:14:18.630Z,1.52
2023-10-14T18:17:00.673Z,1.63
2023-10-14T18:19:31.246Z,1.60
2023-10-14T18:21:58.266Z,1.23
2023-10-14T18:24:25.350Z,1.70
2023-10-14T18:26:52.422Z,1.55
2023-10-14T18:29:22.261Z,2.40
2023-10-14T18:31:50.196Z,2.90
2023-10-14T18:34:17.237Z,2.33
2023-10-14T18:36:44.291Z,2.10
2023-10-14T18:39:12.010Z,2.67
2023-10-14T18:41:39.842Z,2.42
2023-10-14T18:44:09.570Z,2.58
2023-10-14T18:46:36.796Z,2.00
2023-10-14T18:49:04.965Z,2.25
2023-10-14T18:51:34.311Z,1.80
2023-10-14T18:54:01.375Z,1.80
2023-10-14T18:56:29.487Z,2.20
2023-10-14T18:58:57.387Z,1.55
2023-10-14T19:01:25.103Z,2.35
2023-10-14T19:03:52.197Z,2.38
2023-10-14T19:06:19.568Z,1.50
2023-10-14T19:08:46.550Z,2.03
2023-10-14T19:11:13.786Z,1.92
2023-10-14T19:13:40.872Z,1.55
2023-10-14T19:16:10.304Z,1.80
2023-10-14T19:18:37.528Z,1.65
2023-10-14T19:21:06.263Z,2.05
2023-10-14T19:23:35.431Z,1.65
2023-10-14T19:26:13.457Z,1.90
2023-10-14T19:28:41.549Z,1.42
2023-10-14T19:31:11.819Z,1.30
2023-10-14T19:33:38.983Z,1.50
2023-10-14T19:36:06.723Z,1.52
2023-10-14T19:38:33.938Z,1.33
2023-10-14T19:41:05.790Z,1.55
2023-10-14T19:43:35.429Z,1.58
2023-10-14T19:46:06.444Z,1.48
2023-10-14T19:48:34.949Z,1.25
2023-10-14T19:51:16.507Z,1.65
2023-10-14T19:53:44.222Z,1.60
2023-10-14T19:56:12.474Z,1.50
2023-10-14T19:58:39.964Z,1.70
2023-10-14T20:01:08.814Z,1.50
2023-10-14T20:03:36.379Z,1.50
2023-10-14T20:06:05.485Z,1.33
2023-10-14T20:08:36.273Z,1.30
2023-10-14T20:11:03.828Z,1.88
2023-10-14T20:13:45.252Z,2.05
2023-10-14T20:16:12.838Z,1.80
2023-10-14T20:18:40.713Z,1.30
2023-10-14T20:21:07.804Z,1.75
2023-10-14T20:23:35.346Z,1.40
2023-10-14T20:26:05.005Z,2.05
2023-10-14T20:28:32.217Z,1.50
2023-10-14T20:31:00.742Z,1.70
2023-10-14T20:33:29.384Z,1.63
2023-10-14T20:35:57.008Z,1.80
2023-10-14T20:38:24.144Z,1.30
2023-10-14T20:40:51.361Z,1.58
2023-10-14T20:43:19.759Z,1.30
2023-10-14T20:45:49.502Z,1.50
2023-10-14T20:48:18.106Z,1.75
2023-10-14T20:50:49.908Z,1.77
2023-10-14T20:53:18.442Z,1.73
2023-10-14T20:55:47.902Z,1.48
2023-10-14T20:58:15.621Z,1.45
2023-10-14T21:00:42.801Z,1.50
2023-10-14T21:03:22.091Z,1.30
2023-10-14T21:05:57.631Z,1.85
2023-10-14T21:08:28.642Z,1.60
2023-10-14T21:10:57.636Z,1.25
2023-10-14T21:13:28.353Z,1.50
2023-10-14T21:16:04.228Z,1.60
2023-10-14T21:18:32.935Z,1.40
2023-10-14T21:21:01.255Z,2.42
2023-10-14T21:23:31.322Z,1.85
2023-10-14T21:26:00.467Z,1.55
2023-10-14T21:28:28.300Z,1.95
2023-10-14T21:30:55.547Z,1.63
2023-10-14T21:33:22.803Z,2.00
2023-10-14T21:35:50.263Z,1.95
2023-10-14T21:38:18.026Z,1.50
2023-10-14T21:40:49.559Z,1.90
2023-10-14T21:43:18.916Z,1.33
2023-10-14T21:45:46.743Z,1.85
2023-10-14T21:48:14.209Z,2.15
2023-10-14T21:50:41.311Z,1.45
2023-10-14T21:53:09.285Z,2.25
2023-10-14T21:55:38.934Z,1.48
2023-10-14T21:58:09.333Z,1.63
2023-10-14T22:00:38.254Z,1.92
2023-10-14T22:03:13.389Z,1.75
2023-10-14T22:05:43.495Z,1.45
2023-10-14T22:08:18.938Z,2.15
2023-10-14T22:10:53.736Z,1.92
2023-10-14T22:13:23.359Z,1.50
2023-10-14T22:15:50.707Z,1.80
2023-10-14T22:18:17.813Z,1.50
2023-10-14T22:20:44.874Z,1.77
2023-10-14T22:23:11.923Z,1.38
2023-10-14T22:25:55.070Z,1.17
2023-10-14T22:28:22.382Z,1.30
2023-10-14T22:30:49.744Z,1.73
2023-10-14T22:33:16.762Z,1.90
2023-10-14T22:35:45.415Z,1.63
2023-10-14T22:38:13.228Z,1.60
2023-10-14T22:40:44.224Z,1.75
2023-10-14T22:43:11.891Z,1.33
2023-10-14T22:45:39.270Z,1.67
2023-10-14T22:48:07.856Z,2.25
2023-10-14T22:50:35.803Z,1.98
2023-10-14T22:53:03.403Z,1.65
2023-10-14T22:55:33.355Z,1.83
2023-10-14T23:00:31.215Z,1.50
2023-10-14T23:02:58.957Z,1.50
2023-10-14T23:05:30.795Z,1.25
2023-10-14T23:08:00.751Z,1.50
2023-10-14T23:10:32.847Z,1.58
2023-10-14T23:13:01.463Z,2.05
2023-10-14T23:15:30.180Z,1.60
2023-10-14T23:18:03.736Z,1.48
2023-10-14T23:20:31.517Z,1.52
2023-10-14T23:22:59.390Z,1.85
2023-10-14T23:25:28.353Z,1.20
2023-10-14T23:27:57.458Z,1.20
2023-10-14T23:30:25.697Z,1.15
2023-10-14T23:32:58.791Z,1.10
2023-10-14T23:35:26.508Z,1.42
2023-10-14T23:40:23.882Z,1.50
2023-10-14T23:42:52.751Z,1.10
2023-10-14T23:45:19.747Z,1.17
2023-10-14T23:47:54.172Z,1.40
2023-10-14T23:50:21.528Z,1.27
2023-10-14T23:52:52.372Z,1.40
2023-10-14T23:55:24.826Z,1.75
2023-10-14T23:57:57.869Z,1.48
